Terminal Aerodrome Forecast
Issued by NWS Twin Cities, MN

Home | Current Version | Previous Version | Text Only | Print | Product List | Glossary Off
Versions: 1 2 3 4 5 6 7 8 9 10 11 12 13 14 15 16 17

625
FTUS43 KMPX 030829 AAA
TAFEAU
TAF AMD
KEAU 030829Z 0308/0406 01012KT 6SM -SN BLSN BKN020
     FM031200 35015G25KT 5SM -SN BLSN OVC015
     FM031800 32014G22KT 5SM BLSN OVC015
     FM040000 28005KT P6SM BKN250=

USA.gov is the U.S. government's official web portal to all federal, state and local government web resources and services.